Time;durP1;ratioP1;P1;durP2;ratioP2;P2;SDS_P1;SDS_P2;PMS_P1;PMS_P2;Temp;Humidity;BMP_temperature;BMP_pressure;BME280_temperature;BME280_humidity;BME280_pressure;Samples;Min_cycle;Max_cycle;Signal;HPM_P1;HPM_P2
2022/08/12 00:44:14;;;;;;;11.98;7.93;;;27.80;94.00;;;;;;5070548;28;20060;-74
2022/08/12 00:46:57;;;;;;;15.05;8.18;;;27.80;93.90;;;;;;5054836;28;20068;-75
2022/08/12 00:49:27;;;;;;;13.52;8.55;;;27.80;94.00;;;;;;5087168;28;20044;-75
2022/08/12 00:52:10;;;;;;;12.13;8.35;;;27.80;93.90;;;;;;5086879;28;20564;-75
2022/08/12 00:54:47;;;;;;;10.55;7.55;;;27.80;94.00;;;;;;5055445;28;20105;-75
2022/08/12 00:57:18;;;;;;;12.15;8.45;;;27.80;94.10;;;;;;5073385;28;20402;-75
2022/08/12 00:59:50;;;;;;;10.63;8.25;;;27.80;94.20;;;;;;5073256;28;20395;-75
2022/08/12 01:02:37;;;;;;;10.75;8.00;;;27.80;94.10;;;;;;5073085;28;20098;-75
2022/08/12 01:13:34;;;;;;;11.18;7.43;;;27.80;94.10;;;;;;5074285;28;20048;-75
2022/08/12 01:16:05;;;;;;;11.07;8.10;;;27.80;94.10;;;;;;5073581;28;20529;-75
2022/08/12 01:18:38;;;;;;;15.20;10.10;;;27.80;94.10;;;;;;5089032;28;20581;-75
2022/08/12 01:21:15;;;;;;;10.43;7.20;;;27.80;94.10;;;;;;5039904;28;20464;-75
2022/08/12 01:24:04;;;;;;;9.45;6.32;;;27.80;94.10;;;;;;5055759;28;20940;-75
2022/08/12 01:26:33;;;;;;;11.80;6.78;;;27.80;94.10;;;;;;5072782;28;20098;-75
2022/08/12 01:29:02;;;;;;;8.35;6.30;;;27.80;94.00;;;;;;5072792;28;20040;-75
2022/08/12 01:31:30;;;;;;;8.05;5.75;;;27.80;94.10;;;;;;5068904;28;20506;-75
2022/08/12 01:34:08;;;;;;;8.98;6.75;;;27.80;94.10;;;;;;5086031;28;20041;-75
2022/08/12 01:36:43;;;;;;;12.30;6.57;;;27.80;94.10;;;;;;5053913;28;20037;-75
2022/08/12 01:39:13;;;;;;;8.75;6.93;;;27.80;94.10;;;;;;5052650;28;20049;-75
2022/08/12 01:41:47;;;;;;;8.20;6.18;;;27.80;94.10;;;;;;5053696;28;20498;-75
2022/08/12 01:44:15;;;;;;;8.63;6.55;;;27.80;94.10;;;;;;5069151;28;20124;-75
2022/08/12 01:47:10;;;;;;;6.72;5.18;;;27.80;94.10;;;;;;5053475;28;20099;-75
2022/08/12 01:49:40;;;;;;;10.38;5.93;;;27.80;94.10;;;;;;5069281;28;20103;-75
2022/08/12 01:52:31;;;;;;;8.80;6.45;;;27.80;94.20;;;;;;5085825;28;20129;-75
2022/08/12 01:55:00;;;;;;;9.20;5.75;;;27.80;94.20;;;;;;5068972;28;20128;-75
2022/08/12 01:57:43;;;;;;;7.88;5.45;;;27.80;94.10;;;;;;5053452;28;20131;-75
2022/08/12 02:00:14;;;;;;;10.27;6.75;;;27.80;94.20;;;;;;5069005;28;20112;-75
2022/08/12 02:02:47;;;;;;;8.57;5.80;;;27.80;94.20;;;;;;5085465;28;20040;-75
2022/08/12 02:11:47;;;;;;;10.55;7.28;;;27.80;94.40;;;;;;5052156;28;20095;-75
2022/08/12 02:14:33;;;;;;;9.82;6.80;;;27.80;94.30;;;;;;5035655;28;20140;-73
2022/08/12 02:17:07;;;;;;;7.30;5.70;;;27.80;94.40;;;;;;5052439;28;20515;-73
2022/08/12 02:19:47;;;;;;;9.15;6.63;;;27.80;94.30;;;;;;5053446;28;20128;-73
2022/08/12 02:22:25;;;;;;;11.00;6.82;;;27.80;94.40;;;;;;5051868;28;20107;-74
2022/08/12 02:25:02;;;;;;;8.45;6.97;;;27.80;94.40;;;;;;5068770;28;20041;-74
2022/08/12 02:27:38;;;;;;;9.07;7.22;;;27.80;94.50;;;;;;5051982;28;20135;-74
2022/08/12 02:30:09;;;;;;;;;;;27.80;94.50;;;;;;5061551;28;20131;-74
2022/08/12 02:32:43;;;;;;;8.55;6.60;;;27.80;94.40;;;;;;5055569;28;19924;-74
2022/08/12 02:35:18;;;;;;;11.45;6.15;;;27.80;94.40;;;;;;5105744;28;20045;-74
2022/08/12 02:37:48;;;;;;;8.50;6.13;;;27.80;94.40;;;;;;5075799;28;20087;-74
2022/08/12 02:40:16;;;;;;;9.70;7.25;;;27.80;94.40;;;;;;5059723;28;20040;-74
2022/08/12 02:42:52;;;;;;;9.68;6.63;;;27.80;94.40;;;;;;5059348;28;20048;-74
2022/08/12 02:45:41;;;;;;;10.27;6.95;;;27.80;94.50;;;;;;5076936;28;20098;-74
2022/08/12 02:48:14;;;;;;;8.27;6.45;;;27.70;94.50;;;;;;5075729;28;20068;-74
2022/08/12 02:50:48;;;;;;;12.60;7.65;;;27.70;94.60;;;;;;5076040;28;20036;-74
2022/08/12 02:53:17;;;;;;;9.85;5.82;;;27.70;94.60;;;;;;5092544;28;20049;-74
2022/08/12 02:55:44;;;;;;;9.25;6.05;;;27.70;94.70;;;;;;5076487;28;20090;-74
2022/08/12 02:58:13;;;;;;;8.55;6.60;;;27.70;94.80;;;;;;5092280;28;20442;-74
2022/08/12 03:00:42;;;;;;;9.13;6.95;;;27.70;94.80;;;;;;5088085;28;20033;-74
2022/08/12 03:03:13;;;;;;;10.05;6.60;;;27.70;94.80;;;;;;5050252;28;20080;-74
2022/08/12 03:05:47;;;;;;;9.05;7.18;;;27.70;94.80;;;;;;5055559;28;20147;-74
2022/08/12 03:08:18;;;;;;;10.95;7.15;;;27.70;94.80;;;;;;5055411;28;20076;-74
2022/08/12 03:10:49;;;;;;;9.45;7.05;;;27.70;94.90;;;;;;5088790;28;20103;-74
2022/08/12 03:13:25;;;;;;;10.15;6.93;;;27.80;94.80;;;;;;5055556;28;20053;-74
2022/08/12 03:15:54;;;;;;;12.30;7.05;;;27.80;94.80;;;;;;5088455;28;20051;-74
2022/08/12 03:18:30;;;;;;;9.38;6.82;;;27.70;94.70;;;;;;5055070;28;20079;-74
2022/08/12 03:20:59;;;;;;;9.80;7.18;;;27.70;94.70;;;;;;5038338;28;20140;-74
2022/08/12 03:23:28;;;;;;;9.73;7.22;;;27.70;94.70;;;;;;5055059;28;20045;-74
2022/08/12 03:26:01;;;;;;;9.45;7.43;;;27.70;94.60;;;;;;5082416;28;20044;-74
2022/08/12 03:28:49;;;;;;;11.40;7.13;;;27.70;94.70;;;;;;5057820;28;20080;-74
2022/08/12 03:31:23;;;;;;;7.93;7.03;;;27.70;94.70;;;;;;5074827;28;20043;-74
2022/08/12 03:33:55;;;;;;;8.20;5.72;;;27.70;94.80;;;;;;5058489;28;20068;-74
2022/08/12 03:36:26;;;;;;;8.40;6.43;;;27.60;94.70;;;;;;5075356;28;20148;-74
2022/08/12 03:42:08;;;;;;;9.50;7.13;;;27.60;94.70;;;;;;5075086;28;20469;-74
2022/08/12 04:01:55;;;;;;;10.68;6.65;;;27.50;94.80;;;;;;5074248;28;20102;-74
2022/08/12 04:04:34;;;;;;;8.00;6.28;;;27.50;94.90;;;;;;5074341;28;20070;-74
2022/08/12 04:07:07;;;;;;;9.73;7.00;;;27.40;95.00;;;;;;5074465;28;20398;-74
2022/08/12 04:09:39;;;;;;;8.77;7.03;;;27.40;95.10;;;;;;5057837;28;20506;-74
2022/08/12 04:14:57;;;;;;;11.60;6.93;;;27.40;95.20;;;;;;5085320;28;20147;-75
2022/08/12 04:17:27;;;;;;;10.52;6.63;;;27.40;95.10;;;;;;5053906;28;20486;-75
2022/08/12 04:19:56;;;;;;;12.73;7.00;;;27.40;95.00;;;;;;5054384;28;20143;-75
2022/08/12 04:22:29;;;;;;;13.13;7.30;;;27.40;94.90;;;;;;5055096;28;20037;-75
2022/08/12 04:25:01;;;;;;;11.07;6.80;;;27.40;94.80;;;;;;5037530;28;20507;-74
2022/08/12 04:27:30;;;;;;;9.55;7.13;;;27.40;94.70;;;;;;5087280;28;20132;-74
2022/08/12 04:29:58;;;;;;;11.65;6.60;;;27.40;94.70;;;;;;5070285;28;20051;-75
2022/08/12 04:32:26;;;;;;;10.05;6.18;;;27.40;94.70;;;;;;5037859;28;20526;-75
2022/08/12 04:34:55;;;;;;;8.75;6.90;;;27.40;94.60;;;;;;5053719;28;20110;-75
2022/08/12 04:37:22;;;;;;;11.07;6.32;;;27.40;94.60;;;;;;5037218;28;20059;-75
2022/08/12 04:39:52;;;;;;;15.15;7.15;;;27.40;94.80;;;;;;5053582;28;20080;-75
2022/08/12 04:42:20;;;;;;;12.35;6.97;;;27.40;94.70;;;;;;5053643;28;20073;-75
2022/08/12 04:44:48;;;;;;;11.10;6.93;;;27.40;94.70;;;;;;5054717;28;20487;-75
2022/08/12 04:47:16;;;;;;;10.00;6.95;;;27.40;94.80;;;;;;5053770;28;20063;-75
2022/08/12 04:49:46;;;;;;;9.80;6.45;;;27.50;94.90;;;;;;5053265;28;20410;-75
2022/08/12 04:52:14;;;;;;;12.38;6.80;;;27.50;95.20;;;;;;5054803;28;20068;-75
2022/08/12 04:54:42;;;;;;;11.05;7.65;;;27.50;95.00;;;;;;5053266;28;20063;-75
2022/08/12 04:57:10;;;;;;;9.38;6.60;;;27.50;95.00;;;;;;5053171;28;20045;-75
2022/08/12 04:59:38;;;;;;;11.18;7.30;;;27.50;94.90;;;;;;5050896;28;20136;-73
2022/08/12 05:02:06;;;;;;;11.05;6.80;;;27.50;94.90;;;;;;5081251;28;20491;-74
2022/08/12 05:04:36;;;;;;;10.82;6.53;;;27.60;94.90;;;;;;5072242;28;20044;-75
2022/08/12 05:07:06;;;;;;;8.73;6.53;;;27.70;94.80;;;;;;5068206;28;20037;-75
2022/08/12 05:09:34;;;;;;;9.05;6.70;;;27.70;94.60;;;;;;5070774;28;20076;-75
2022/08/12 05:12:02;;;;;;;10.82;7.15;;;27.80;94.50;;;;;;5069245;28;20072;-75
2022/08/12 05:14:30;;;;;;;9.32;6.45;;;27.80;94.40;;;;;;5054231;28;20037;-75
2022/08/12 05:16:59;;;;;;;11.40;6.70;;;27.80;94.40;;;;;;5076420;28;20083;-74
2022/08/12 05:19:28;;;;;;;9.20;6.88;;;27.80;94.30;;;;;;5039764;28;20048;-74
2022/08/12 05:21:56;;;;;;;9.25;6.97;;;27.80;94.40;;;;;;5056361;28;20049;-74
2022/08/12 05:24:23;;;;;;;12.57;7.55;;;27.80;94.40;;;;;;5072619;28;20076;-74
2022/08/12 05:26:51;;;;;;;13.60;6.95;;;27.90;94.40;;;;;;5056084;28;20390;-74
2022/08/12 05:29:19;;;;;;;10.07;6.90;;;27.90;94.50;;;;;;5073825;28;20127;-74
2022/08/12 05:31:55;;;;;;;12.18;6.82;;;28.00;94.50;;;;;;5056150;28;20045;-74
2022/08/12 05:34:24;;;;;;;11.90;7.50;;;28.00;94.50;;;;;;5072629;28;20094;-74
2022/08/12 05:36:52;;;;;;;9.77;6.50;;;28.00;94.60;;;;;;5072346;28;20125;-74
2022/08/12 05:39:20;;;;;;;12.95;7.43;;;28.10;94.80;;;;;;5105963;28;20071;-74
2022/08/12 05:41:48;;;;;;;14.10;9.68;;;28.10;95.10;;;;;;5074022;28;20075;-74
2022/08/12 05:44:16;;;;;;;11.73;8.35;;;28.10;95.30;;;;;;5073630;28;20068;-74
2022/08/12 05:46:44;;;;;;;14.63;7.53;;;28.10;95.50;;;;;;5072366;28;20507;-73
2022/08/12 05:49:11;;;;;;;15.40;9.50;;;28.10;95.70;;;;;;5072447;28;20055;-74
2022/08/12 05:51:39;;;;;;;11.98;8.82;;;28.10;96.00;;;;;;5072234;28;20041;-74
2022/08/12 05:54:09;;;;;;;13.13;9.48;;;28.10;96.10;;;;;;5055746;28;20421;-74
2022/08/12 05:56:40;;;;;;;13.30;9.82;;;28.20;96.40;;;;;;5072298;28;20040;-74
2022/08/12 05:59:09;;;;;;;15.98;10.13;;;28.20;96.50;;;;;;5089113;28;20491;-73
2022/08/12 06:01:40;;;;;;;13.05;9.40;;;28.30;96.70;;;;;;5055953;28;20037;-74
2022/08/12 06:04:08;;;;;;;13.93;9.57;;;28.30;96.60;;;;;;5071919;28;20052;-74
2022/08/12 06:06:40;;;;;;;15.18;10.20;;;28.50;96.60;;;;;;5055040;28;20045;-73
2022/08/12 06:09:10;;;;;;;12.18;9.30;;;28.70;96.50;;;;;;5073712;28;20429;-74
2022/08/12 06:11:40;;;;;;;15.30;11.15;;;28.90;96.30;;;;;;5074350;28;20046;-73
2022/08/12 06:14:08;;;;;;;12.50;10.80;;;29.00;96.00;;;;;;5093098;28;20090;-73
2022/08/12 06:16:35;;;;;;;13.55;10.18;;;29.10;95.90;;;;;;5109685;28;20040;-73
2022/08/12 06:19:03;;;;;;;17.38;10.98;;;29.20;95.80;;;;;;5109981;28;20151;-74
2022/08/12 06:21:32;;;;;;;14.73;10.90;;;29.30;95.70;;;;;;5076025;28;20147;-73
2022/08/12 06:24:00;;;;;;;13.73;10.27;;;29.50;95.60;;;;;;5077335;28;20127;-73
2022/08/12 06:26:28;;;;;;;11.68;8.93;;;29.60;95.50;;;;;;5076239;28;20044;-73
2022/08/12 06:28:59;;;;;;;17.13;10.60;;;29.80;95.30;;;;;;5035951;28;20045;-73
2022/08/12 06:31:27;;;;;;;13.38;10.10;;;29.90;95.10;;;;;;5069115;28;20493;-74
2022/08/12 06:33:55;;;;;;;13.63;10.32;;;30.00;95.00;;;;;;5036188;28;20433;-73
2022/08/12 06:36:24;;;;;;;11.68;9.27;;;30.10;94.70;;;;;;5035886;28;20057;-73
2022/08/12 06:38:51;;;;;;;13.38;9.48;;;30.20;94.50;;;;;;5036070;28;20041;-74
2022/08/12 06:44:19;;;;;;;12.93;9.27;;;30.30;94.40;;;;;;5036063;28;20148;-74
2022/08/12 06:46:47;;;;;;;15.52;10.07;;;30.40;93.80;;;;;;5037420;28;20046;-74
2022/08/12 06:49:15;;;;;;;12.25;9.52;;;30.60;93.60;;;;;;5052445;28;20038;-74
2022/08/12 06:51:43;;;;;;;12.80;9.40;;;30.80;93.50;;;;;;5052267;28;20045;-74
2022/08/12 06:54:10;;;;;;;12.25;9.15;;;30.80;93.20;;;;;;5050059;28;20084;-74
2022/08/12 06:56:38;;;;;;;22.10;10.15;;;30.90;93.20;;;;;;5036532;28;20041;-73
2022/08/12 06:59:26;;;;;;;13.30;8.60;;;31.00;93.10;;;;;;5063335;28;20045;-73
2022/08/12 07:01:54;;;;;;;10.85;8.95;;;31.20;92.70;;;;;;5068444;28;20051;-74
2022/08/12 07:04:22;;;;;;;14.95;8.43;;;31.50;92.10;;;;;;5036879;28;20092;-73
2022/08/12 07:07:04;;;;;;;14.50;8.48;;;31.70;91.00;;;;;;5018897;28;20049;-73
2022/08/12 07:09:31;;;;;;;18.40;8.60;;;31.90;90.30;;;;;;5035695;28;20438;-73
2022/08/12 07:11:59;;;;;;;10.88;8.73;;;32.10;89.00;;;;;;5068766;28;20136;-73
2022/08/12 07:14:27;;;;;;;9.82;8.25;;;32.20;86.30;;;;;;5036565;28;20041;-74
2022/08/12 07:17:00;;;;;;;10.73;7.78;;;32.30;85.80;;;;;;5035160;28;20399;-73
2022/08/12 07:19:28;;;;;;;11.30;8.23;;;32.30;84.00;;;;;;5068158;28;20051;-74
2022/08/12 07:21:57;;;;;;;11.38;8.43;;;32.40;83.90;;;;;;5067898;28;20541;-74
2022/08/12 07:24:25;;;;;;;10.18;7.78;;;32.40;83.80;;;;;;5036552;28;20073;-74
2022/08/12 07:26:54;;;;;;;11.13;8.10;;;32.30;82.50;;;;;;5073881;28;20044;-74
2022/08/12 07:29:22;;;;;;;10.10;7.55;;;32.20;82.60;;;;;;5109093;28;20112;-74
2022/08/12 07:31:50;;;;;;;11.00;7.72;;;32.10;83.10;;;;;;5074875;28;20044;-74
2022/08/12 07:34:17;;;;;;;10.80;8.02;;;32.20;83.90;;;;;;5108657;28;20429;-74
2022/08/12 07:36:46;;;;;;;11.00;8.43;;;32.20;83.30;;;;;;5074658;28;20495;-74
2022/08/12 07:39:13;;;;;;;9.57;7.40;;;32.20;82.50;;;;;;5076080;28;20135;-74
2022/08/12 07:41:42;;;;;;;8.85;7.45;;;32.20;82.80;;;;;;5091736;28;20102;-74
2022/08/12 07:44:12;;;;;;;9.82;7.93;;;32.20;82.90;;;;;;5075178;28;20495;-74
2022/08/12 07:46:42;;;;;;;9.13;8.10;;;32.20;82.80;;;;;;5071014;28;20045;-74
2022/08/12 07:49:13;;;;;;;8.77;7.50;;;32.20;82.30;;;;;;5087841;28;20049;-74
2022/08/12 07:51:42;;;;;;;10.50;8.25;;;32.30;81.60;;;;;;5071666;28;20048;-74
2022/08/12 07:54:11;;;;;;;10.85;7.97;;;32.30;81.30;;;;;;5087784;28;20044;-74
2022/08/12 07:56:40;;;;;;;11.27;8.35;;;32.40;81.30;;;;;;5055686;28;20041;-74
2022/08/12 07:59:09;;;;;;;9.73;6.95;;;32.50;81.60;;;;;;5088045;28;20037;-74
2022/08/12 08:01:37;;;;;;;10.82;8.43;;;32.60;81.20;;;;;;5087629;28;20063;-74
2022/08/12 08:06:52;;;;;;;9.77;7.38;;;32.90;81.90;;;;;;5055435;28;20044;-74
2022/08/12 08:09:22;;;;;;;11.63;7.85;;;33.10;80.50;;;;;;5071152;28;20045;-73
2022/08/12 08:14:39;;;;;;;10.40;7.45;;;33.20;77.70;;;;;;5054141;28;20506;-74
2022/08/12 08:17:09;;;;;;;13.23;7.47;;;33.20;77.20;;;;;;5053694;28;20398;-73
2022/08/12 08:19:37;;;;;;;9.65;7.68;;;33.10;78.90;;;;;;5055143;28;20045;-72
2022/08/12 08:22:04;;;;;;;11.18;7.65;;;32.90;80.30;;;;;;5070622;28;20041;-73
2022/08/12 08:24:32;;;;;;;9.85;8.32;;;32.90;81.90;;;;;;5055128;28;20372;-73
2022/08/12 08:27:00;;;;;;;9.88;7.93;;;32.90;82.70;;;;;;5070320;28;20570;-73
2022/08/12 08:29:28;;;;;;;10.38;7.82;;;32.90;82.90;;;;;;5053887;28;20513;-73
2022/08/12 08:32:00;;;;;;;10.52;8.27;;;32.90;81.40;;;;;;5068844;28;20055;-74
2022/08/12 08:34:30;;;;;;;13.98;7.72;;;33.10;82.20;;;;;;5089838;28;20429;-73
2022/08/12 08:37:18;;;;;;;8.82;7.20;;;33.10;82.50;;;;;;5073589;28;20120;-73
2022/08/12 08:39:47;;;;;;;9.80;7.75;;;33.20;82.60;;;;;;5073710;28;20094;-73
2022/08/12 08:45:11;;;;;;;10.15;6.65;;;33.40;82.00;;;;;;5057388;28;20391;-73
2022/08/12 08:47:44;;;;;;;9.40;6.85;;;33.50;82.00;;;;;;5073555;28;20044;-72
2022/08/12 08:50:14;;;;;;;9.10;7.68;;;33.60;80.90;;;;;;5073484;28;20123;-72
2022/08/12 08:52:43;;;;;;;10.50;6.82;;;33.70;80.90;;;;;;5056694;28;20047;-72
2022/08/12 08:55:15;;;;;;;11.57;6.82;;;33.80;81.00;;;;;;5074503;28;20499;-73
2022/08/12 08:57:49;;;;;;;11.13;6.88;;;33.90;81.10;;;;;;5072470;28;20147;-73
2022/08/12 09:00:19;;;;;;;16.42;7.50;;;33.80;81.00;;;;;;5107281;28;20114;-73
2022/08/12 09:02:48;;;;;;;9.35;6.63;;;33.90;81.50;;;;;;5073143;28;20048;-73
2022/08/12 09:05:16;;;;;;;9.10;6.22;;;33.90;80.50;;;;;;5073057;28;20036;-73
2022/08/12 09:07:49;;;;;;;9.93;5.55;;;34.00;80.20;;;;;;5074937;28;20593;-73
2022/08/12 09:10:18;;;;;;;8.05;6.03;;;34.10;80.00;;;;;;5073147;28;20036;-73
2022/08/12 09:15:35;;;;;;;10.02;6.10;;;34.00;81.00;;;;;;5074142;28;20139;-73
2022/08/12 09:18:05;;;;;;;8.77;5.60;;;33.70;81.40;;;;;;5074091;28;20044;-74
2022/08/12 09:20:34;;;;;;;9.98;7.07;;;33.50;81.90;;;;;;5089451;28;20147;-74
2022/08/12 09:23:09;;;;;;;8.60;6.25;;;33.20;81.90;;;;;;5055904;28;20521;-73
2022/08/12 09:25:39;;;;;;;7.85;6.53;;;33.00;82.40;;;;;;5056155;28;20093;-72
2022/08/12 09:28:08;;;;;;;9.38;5.47;;;32.80;82.70;;;;;;5070317;28;20552;-73
2022/08/12 09:30:43;;;;;;;10.63;5.97;;;32.60;82.80;;;;;;5106515;28;20032;-73
2022/08/12 09:33:11;;;;;;;9.68;6.20;;;32.40;82.80;;;;;;5074181;28;20120;-72
2022/08/12 09:35:43;;;;;;;10.15;5.60;;;32.10;83.40;;;;;;5072234;28;20101;-73
2022/08/12 09:38:16;;;;;;;7.65;6.32;;;31.90;84.00;;;;;;5106528;28;20505;-73
2022/08/12 09:40:44;;;;;;;9.30;5.97;;;31.70;84.00;;;;;;5072442;28;20056;-73
2022/08/12 09:46:02;;;;;;;8.38;6.68;;;31.30;84.30;;;;;;5073496;28;20076;-74
2022/08/12 09:48:31;;;;;;;9.13;6.47;;;31.20;84.20;;;;;;5073506;28;20154;-74
2022/08/12 09:50:59;;;;;;;10.90;6.40;;;31.10;84.50;;;;;;5089432;28;20043;-73
2022/08/12 09:53:27;;;;;;;10.48;6.72;;;31.00;87.00;;;;;;5067384;28;20045;-75
2022/08/12 09:55:57;;;;;;;13.30;6.20;;;30.90;89.70;;;;;;5077725;28;20053;-75
2022/08/12 09:58:28;;;;;;;10.93;5.68;;;30.70;90.20;;;;;;5085546;28;20116;-75
2022/08/12 10:01:03;;;;;;;22.88;11.65;;;30.50;90.70;;;;;;5085361;28;20048;-75
2022/08/12 10:03:35;;;;;;;13.45;7.93;;;30.30;91.70;;;;;;5097199;28;20057;-73
2022/08/12 10:06:05;;;;;;;13.88;7.47;;;30.10;92.40;;;;;;5075348;28;20060;-71
2022/08/12 10:08:35;;;;;;;13.35;7.45;;;30.00;92.80;;;;;;5084110;28;20041;-71
2022/08/12 10:13:54;;;;;;;14.27;7.32;;;29.60;93.30;;;;;;5077886;28;20395;-71
2022/08/12 10:16:29;;;;;;;10.10;7.05;;;29.40;93.50;;;;;;5065449;28;20032;-71
2022/08/12 10:19:06;;;;;;;10.95;7.43;;;29.30;93.90;;;;;;5082844;28;20032;-71
2022/08/12 10:21:40;;;;;;;15.60;8.05;;;29.20;94.10;;;;;;5084144;28;20123;-71
2022/08/12 10:24:13;;;;;;;12.90;8.20;;;29.10;94.50;;;;;;5083254;28;20064;-71
2022/08/12 10:29:37;;;;;;;10.75;7.50;;;29.10;96.00;;;;;;5063718;28;20041;-70
2022/08/12 10:32:19;;;;;;;17.50;8.15;;;29.10;96.40;;;;;;5080320;28;20503;-70
2022/08/12 10:34:52;;;;;;;13.32;8.55;;;29.10;96.90;;;;;;5080284;28;20044;-70
2022/08/12 10:37:21;;;;;;;18.17;9.43;;;28.80;95.90;;;;;;5080577;28;20115;-70
2022/08/12 10:39:49;;;;;;;11.90;7.85;;;27.70;94.90;;;;;;5082404;28;20040;-70
2022/08/12 10:45:08;;;;;;;10.60;7.68;;;25.60;96.30;;;;;;5090118;28;20072;-70
2022/08/12 10:47:36;;;;;;;11.98;9.00;;;25.70;96.90;;;;;;5057126;28;20036;-69
2022/08/12 10:50:08;;;;;;;12.88;8.52;;;25.80;97.60;;;;;;5078067;28;20041;-69
2022/08/12 10:52:39;;;;;;;13.75;8.35;;;26.00;98.50;;;;;;5071776;28;20374;-73
2022/08/12 10:55:07;;;;;;;12.13;7.65;;;26.20;98.70;;;;;;5070128;28;20454;-71
2022/08/12 10:57:36;;;;;;;11.68;7.50;;;26.40;98.30;;;;;;5073436;28;20109;-71
2022/08/12 11:00:06;;;;;;;10.43;6.50;;;26.60;97.80;;;;;;5075489;28;20039;-72
2022/08/12 11:02:36;;;;;;;10.25;6.90;;;26.70;97.30;;;;;;5102743;27;20037;-71
2022/08/12 11:05:04;;;;;;;9.70;7.18;;;26.90;97.00;;;;;;5075499;28;20057;-71
2022/08/12 11:07:34;;;;;;;11.77;8.65;;;26.90;96.90;;;;;;5075493;28;20044;-71
2022/08/12 11:10:02;;;;;;;10.15;6.93;;;27.00;97.10;;;;;;5074734;28;20575;-70
2022/08/12 11:12:30;;;;;;;10.38;7.18;;;27.00;96.70;;;;;;5065379;28;20128;-71
2022/08/12 11:14:58;;;;;;;10.45;6.32;;;27.00;96.40;;;;;;5074831;28;20418;-71
2022/08/12 11:17:27;;;;;;;12.25;7.28;;;26.70;96.00;;;;;;5073942;28;20596;-71
2022/08/12 11:19:55;;;;;;;9.43;6.90;;;26.30;96.70;;;;;;5075110;28;20060;-72
2022/08/12 11:22:22;;;;;;;9.20;5.82;;;25.90;96.30;;;;;;5058728;28;20383;-72
2022/08/12 11:24:50;;;;;;;8.50;6.47;;;25.30;96.30;;;;;;5074543;28;20056;-72
2022/08/12 11:27:18;;;;;;;8.77;6.57;;;25.10;96.90;;;;;;5075272;28;20048;-72
2022/08/12 11:29:45;;;;;;;10.30;5.47;;;25.20;96.50;;;;;;5074063;28;20047;-72
2022/08/12 11:32:13;;;;;;;7.38;5.80;;;25.30;96.20;;;;;;5075976;28;20056;-72
2022/08/12 11:34:41;;;;;;;7.88;6.03;;;25.20;95.90;;;;;;5074695;28;20047;-72
2022/08/12 11:37:09;;;;;;;10.32;5.65;;;25.30;95.90;;;;;;5074344;28;20082;-72
2022/08/12 11:39:36;;;;;;;10.10;6.47;;;25.50;96.20;;;;;;5074889;28;20043;-73
2022/08/12 11:42:05;;;;;;;7.47;5.55;;;25.50;96.30;;;;;;5074197;28;20556;-72
2022/08/12 11:44:33;;;;;;;8.57;6.38;;;25.70;96.50;;;;;;5074569;28;20040;-71
2022/08/12 11:47:00;;;;;;;10.52;6.05;;;25.90;96.70;;;;;;5074995;28;20040;-72
2022/08/12 11:49:28;;;;;;;9.30;6.13;;;26.00;96.90;;;;;;5078361;28;20043;-72
2022/08/12 11:51:56;;;;;;;10.40;7.75;;;26.10;97.10;;;;;;5083380;28;20493;-72
2022/08/12 11:54:24;;;;;;;8.15;5.75;;;26.30;97.20;;;;;;5085388;28;20059;-72
2022/08/12 11:56:52;;;;;;;8.77;5.22;;;26.40;97.10;;;;;;5073744;28;20506;-76
2022/08/12 11:59:21;;;;;;;9.73;5.13;;;26.50;96.90;;;;;;5084569;28;20037;-72
2022/08/12 12:02:09;;;;;;;10.35;7.03;;;26.60;96.60;;;;;;5070193;28;20094;-73
2022/08/12 12:04:37;;;;;;;9.05;5.10;;;26.60;96.20;;;;;;5073587;28;20095;-73
2022/08/12 12:07:05;;;;;;;7.38;5.45;;;26.60;96.30;;;;;;5079455;28;20132;-72
2022/08/12 12:09:35;;;;;;;11.57;7.18;;;26.60;96.30;;;;;;5039514;28;20037;-71
2022/08/12 12:12:03;;;;;;;8.60;6.60;;;26.50;96.00;;;;;;5069798;28;20116;-71
2022/08/12 12:14:31;;;;;;;11.20;6.53;;;26.50;96.50;;;;;;5081236;28;20399;-71
2022/08/12 12:16:59;;;;;;;11.63;6.32;;;26.50;97.00;;;;;;5054300;28;20037;-71
2022/08/12 12:19:27;;;;;;;9.43;5.90;;;26.50;97.00;;;;;;5072626;28;20044;-72
2022/08/12 12:21:55;;;;;;;11.50;6.25;;;26.50;97.20;;;;;;5087231;28;20206;-72
2022/08/12 12:24:23;;;;;;;15.60;10.77;;;26.50;97.00;;;;;;5073222;28;20514;-74
2022/08/12 12:26:51;;;;;;;12.10;7.07;;;26.50;97.10;;;;;;5086044;28;20050;-74
2022/08/12 12:29:19;;;;;;;9.07;6.05;;;26.50;97.20;;;;;;5074639;28;20040;-72
2022/08/12 12:31:46;;;;;;;9.38;5.85;;;26.60;97.00;;;;;;5054923;28;20040;-72
2022/08/12 12:34:14;;;;;;;9.05;5.65;;;26.70;96.50;;;;;;5074265;28;20530;-71
2022/08/12 12:36:46;;;;;;;14.57;6.65;;;26.80;96.50;;;;;;5071050;28;20036;-72
2022/08/12 12:39:14;;;;;;;8.65;5.25;;;26.80;96.30;;;;;;5089902;28;20071;-72
2022/08/12 12:41:41;;;;;;;8.13;5.47;;;26.80;96.50;;;;;;5071778;28;20041;-72
2022/08/12 12:44:09;;;;;;;7.82;5.50;;;26.70;97.00;;;;;;5104904;27;20054;-72
2022/08/12 12:46:37;;;;;;;8.73;5.63;;;26.80;97.20;;;;;;5072143;28;20044;-72
2022/08/12 12:49:05;;;;;;;7.15;5.40;;;26.80;97.20;;;;;;5072327;28;20409;-71
2022/08/12 12:51:33;;;;;;;9.25;6.28;;;26.90;97.30;;;;;;5072469;28;20124;-71
2022/08/12 12:54:01;;;;;;;9.75;6.05;;;26.90;97.30;;;;;;5059583;28;20094;-71
2022/08/12 12:56:30;;;;;;;14.80;6.40;;;27.00;97.40;;;;;;5071168;28;20441;-72
2022/08/12 12:58:59;;;;;;;8.20;6.03;;;27.00;97.40;;;;;;5064957;28;20048;-72
2022/08/12 13:01:28;;;;;;;9.27;6.38;;;27.10;97.50;;;;;;5071969;28;20036;-72
2022/08/12 13:03:56;;;;;;;8.00;5.90;;;27.20;97.30;;;;;;5072090;28;20040;-72
2022/08/12 13:06:30;;;;;;;7.10;5.47;;;27.30;96.70;;;;;;5071240;28;20479;-72
2022/08/12 13:09:04;;;;;;;7.88;5.82;;;27.50;97.00;;;;;;5104746;28;20112;-72
2022/08/12 13:11:33;;;;;;;9.98;6.63;;;27.60;97.20;;;;;;5103546;28;20037;-72
2022/08/12 13:14:01;;;;;;;8.93;6.13;;;27.70;97.20;;;;;;5082433;28;20083;-72
2022/08/12 13:16:29;;;;;;;11.60;7.05;;;27.90;97.40;;;;;;5071365;28;20672;-73
2022/08/12 13:18:57;;;;;;;7.82;5.85;;;28.00;97.70;;;;;;5072313;28;20402;-72
2022/08/12 13:21:31;;;;;;;8.85;6.10;;;28.00;97.60;;;;;;5079949;28;20032;-72
2022/08/12 13:24:02;;;;;;;9.00;6.90;;;28.00;97.90;;;;;;5065314;28;20064;-72
2022/08/12 13:26:33;;;;;;;9.65;5.95;;;28.00;98.30;;;;;;5071505;28;20368;-71
2022/08/12 13:29:02;;;;;;;8.07;5.78;;;28.10;98.40;;;;;;5103051;27;20127;-72
2022/08/12 13:31:30;;;;;;;10.27;6.32;;;28.10;98.20;;;;;;5069680;28;20043;-72
2022/08/12 13:33:58;;;;;;;9.70;6.22;;;28.00;97.80;;;;;;5072725;28;20486;-71
2022/08/12 13:36:29;;;;;;;8.98;6.63;;;28.10;97.90;;;;;;5054934;28;20521;-73
2022/08/12 13:38:57;;;;;;;10.73;6.47;;;28.10;97.70;;;;;;5070358;28;20056;-72
2022/08/12 13:41:34;;;;;;;9.18;5.97;;;28.20;97.80;;;;;;5097172;28;20051;-72
2022/08/12 13:44:07;;;;;;;9.00;6.40;;;28.20;97.80;;;;;;5106197;28;20131;-72
2022/08/12 13:46:36;;;;;;;8.27;5.32;;;28.30;97.60;;;;;;5072062;28;20041;-72
2022/08/12 13:49:06;;;;;;;9.10;6.93;;;28.30;97.60;;;;;;5071462;28;20035;-72
2022/08/12 13:51:35;;;;;;;7.35;5.88;;;28.30;97.70;;;;;;5072137;28;20044;-72
2022/08/12 13:54:05;;;;;;;8.85;6.20;;;28.30;97.80;;;;;;5073521;28;20044;-72
2022/08/12 13:56:37;;;;;;;9.07;5.65;;;28.40;97.90;;;;;;5072050;28;20040;-72
2022/08/12 13:59:08;;;;;;;10.40;5.97;;;28.30;97.60;;;;;;5073483;28;20051;-72
2022/08/12 14:01:36;;;;;;;11.00;6.45;;;28.30;97.80;;;;;;5039204;28;20437;-72
2022/08/12 14:04:05;;;;;;;9.57;6.68;;;28.40;97.50;;;;;;5071481;28;20051;-73
2022/08/12 14:06:32;;;;;;;8.15;5.90;;;28.40;97.60;;;;;;5073492;28;20046;-72
2022/08/12 14:09:00;;;;;;;11.60;5.80;;;28.40;97.70;;;;;;5055265;28;20041;-72
2022/08/12 14:11:28;;;;;;;7.82;6.03;;;28.40;97.60;;;;;;5071809;28;20047;-72
2022/08/12 14:13:58;;;;;;;7.93;4.72;;;28.40;97.40;;;;;;5071674;28;20136;-73
2022/08/12 14:16:28;;;;;;;10.50;5.82;;;28.50;97.40;;;;;;5071994;28;20033;-71
2022/08/12 14:18:56;;;;;;;9.05;5.47;;;28.50;97.00;;;;;;5055561;28;20391;-71
2022/08/12 14:21:25;;;;;;;6.82;4.78;;;28.40;96.70;;;;;;5072222;28;20032;-71
2022/08/12 14:23:53;;;;;;;7.28;4.97;;;28.40;96.60;;;;;;5071244;28;20120;-73
2022/08/12 14:26:23;;;;;;;6.97;4.90;;;28.40;96.70;;;;;;5072149;28;20040;-72
2022/08/12 14:28:54;;;;;;;10.52;5.50;;;28.40;97.10;;;;;;5075540;28;20079;-73
2022/08/12 14:31:22;;;;;;;7.40;5.78;;;28.30;97.00;;;;;;5101951;28;20052;-72
2022/08/12 14:33:52;;;;;;;10.85;6.35;;;28.40;97.40;;;;;;5059429;28;20140;-72
2022/08/12 14:36:22;;;;;;;9.45;5.53;;;28.30;97.40;;;;;;5075386;28;20044;-75
2022/08/12 14:38:53;;;;;;;7.68;4.80;;;28.30;97.10;;;;;;5077719;28;20044;-75
2022/08/12 14:41:24;;;;;;;7.57;5.15;;;28.40;97.00;;;;;;5070140;28;20495;-74
2022/08/12 14:43:52;;;;;;;7.50;5.13;;;28.30;96.90;;;;;;5095918;28;20035;-72